D7023 Weather Reports


Display with metric or nautical units.
time (UTC)temp
F
wind
direction
speed
MPH
gust
MPH
rain 1hr
in
rain 24hr
in
rain mn
in
humidity
%
barometer
mb
20260508190456 74 141 0.0 0.0 0.03 0.09 0.09 95 1006.5
20260508185926 74 141 0.0 0.0 0.03 0.09 0.09 95 1006.9
20260508185649 74 141 0.0 1.0 0.02 0.08 0.09 94 1007.1
20260508184923 74 141 0.0 1.0 0.01 0.07 0.08 94 1007.2
20260508184639 74 141 0.0 2.0 0.01 0.07 0.07 94 1007.3
20260508183916 74 141 0.0 2.0 0.00 0.06 0.06 93 1007.3
20260508183417 74 151 0.0 1.0 0.00 0.06 0.06 93 1007.3
20260508182917 75 151 0.0 1.0 0.00 0.06 0.06 93 1007.1
20260508182414 75 151 0.0 1.0 0.00 0.06 0.06 93 1007.2
20260508181914 75 151 0.0 1.0 0.00 0.06 0.06 93 1007.1
20260508181415 75 151 0.0 2.0 0.00 0.06 0.06 93 1007.3
20260508181127 75 151 0.0 2.0 0.00 0.06 0.06 93 1007.4
20260508180408 75 154 0.0 2.0 0.00 0.06 0.06 93 1007.6
20260508175903 75 154 0.0 2.0 0.00 0.06 0.06 92 1007.6
20260508175405 75 123 0.0 1.0 0.00 0.06 0.06 93 1007.5
20260508174902 75 118 0.0 2.0 0.00 0.06 0.06 93 1007.5
20260508174359 75 118 1.0 4.0 0.00 0.06 0.06 92 1007.4
20260508173901 75 166 2.0 5.0 0.00 0.06 0.06 92 1007.2
20260508173400 75 214 1.0 5.0 0.00 0.06 0.06 93 1007.1
20260508172859 75 223 0.0 0.0 0.00 0.06 0.06 94 1006.8
20260508172400 75 223 0.0 0.0 0.00 0.06 0.06 94 1006.8
20260508171859 75 223 0.0 0.0 0.00 0.06 0.06 93 1006.8
20260508171358 75 223 0.0 0.0 0.00 0.06 0.06 93 1006.8
20260508170856 75 224 0.0 0.0 0.00 0.06 0.06 94 1006.7
20260508170354 75 223 0.0 0.0 0.00 0.06 0.06 93 1006.5
20260508165853 75 223 0.0 0.0 0.00 0.06 0.06 92 1006.3
20260508165351 75 223 0.0 0.0 0.00 0.06 0.06 92 1006.4
20260508165111 75 222 0.0 3.0 0.00 0.06 0.06 92 1006.6
20260508164343 75 223 1.0 3.0 0.00 0.06 0.06 92 1006.6
20260508163840 75 184 0.0 3.0 0.00 0.06 0.06 92 1006.4
20260508163341 74 0 0.0 0.0 0.00 0.06 0.06 94 1006.2
20260508162835 74 0 0.0 2.0 0.00 0.06 0.06 94 1006.4
20260508162336 74 0 1.0 4.0 0.00 0.06 0.06 93 1006.6
20260508162022 74 0 1.0 4.0 0.00 0.06 0.06 93 1006.8
20260508161230 74 134 0.0 2.0 0.00 0.06 0.06 93 1007.3
20260508160704 74 25 0.0 2.0 0.00 0.06 0.06 94 1007.3
20260508160139 74 25 0.0 1.0 0.00 0.06 0.06 93 1007.4
20260508155829 74 105 0.0 1.0 0.00 0.06 0.06 93 1007.5
20260508155042 74 118 0.0 0.0 0.00 0.06 0.06 94 1007.4
20260508154518 74 120 0.0 0.0 0.00 0.06 0.06 95 1007.2
20260508153949 74 120 0.0 0.0 0.00 0.06 0.06 95 1007.1
20260508153422 74 120 0.0 0.0 0.00 0.06 0.06 95 1006.9
20260508152856 74 120 0.0 0.0 0.00 0.06 0.06 95 1006.8
20260508152331 74 120 0.0 0.0 0.00 0.06 0.06 95 1007.0
20260508151808 74 121 0.0 2.0 0.00 0.06 0.06 94 1006.9
20260508151303 74 120 0.0 2.0 0.00 0.06 0.06 95 1006.7
20260508150802 74 119 0.0 1.0 0.00 0.06 0.06 95 1006.8
20260508150258 74 119 0.0 1.0 0.00 0.06 0.06 95 1006.7
20260508150249 74 126 1.0 4.0 0.00 0.06 0.06 95 1006.8
20260508145306 73 126 2.0 5.0 0.01 0.06 0.06 95 1006.8
20260508145020 73 189 1.0 5.0 0.01 0.06 0.06 95 1007.1
20260508144253 73 144 0.0 1.0 0.01 0.06 0.06 96 1006.8
20260508143750 73 126 0.0 2.0 0.01 0.06 0.06 97 1006.9
20260508143251 73 126 0.0 2.0 0.01 0.06 0.06 96 1007.1
20260508143021 73 129 0.0 2.0 0.02 0.06 0.06 97 1007.3
20260508142244 73 139 0.0 2.0 0.02 0.06 0.06 97 1007.3
20260508141747 73 127 0.0 2.0 0.03 0.06 0.06 96 1007.4
20260508141246 73 155 0.0 2.0 0.03 0.06 0.06 97 1007.3
20260508140725 73 164 0.0 2.0 0.03 0.06 0.06 97 1007.1
20260508140231 73 164 0.0 0.0 0.03 0.06 0.06 97 1007.0
20260508140146 73 164 0.0 0.0 0.05 0.06 0.06 96 1007.2
20260508135135 73 164 0.0 2.0 0.04 0.05 0.05 97 1007.1
20260508134830 73 164 0.0 2.0 0.04 0.05 0.05 96 1007.4
20260508134106 73 165 0.0 2.0 0.05 0.05 0.05 96 1007.5
20260508133833 73 165 0.0 1.0 0.05 0.05 0.05 95 1007.5
20260508133104 74 165 0.0 1.0 0.05 0.05 0.05 95 1007.6
20260508132603 74 165 0.0 1.0 0.04 0.04 0.04 94 1007.6
20260508132102 74 165 0.0 2.0 0.04 0.04 0.04 93 1007.5
20260508131604 74 165 0.0 2.0 0.03 0.03 0.03 92 1007.3
20260508131056 75 166 0.0 2.0 0.03 0.03 0.03 92 1007.3
20260508130554 75 166 0.0 2.0 0.03 0.03 0.03 91 1007.9
20260508130052 75 218 1.0 2.0 0.02 0.02 0.02 90 1008.2
20260508125550 76 219 1.0 4.0 0.01 0.01 0.01 89 1008.2
20260508125051 76 214 1.0 4.0 0.01 0.01 0.01 88 1007.9
20260508124552 76 131 1.0 3.0 0.01 0.01 0.01 87 1007.3
20260508124053 76 58 1.0 5.0 0.00 0.00 0.00 87 1007.3
20260508123526 76 81 1.0 5.0 0.00 0.00 0.00 86 1007.6
20260508123027 76 57 1.0 4.0 0.00 0.00 0.00 86 1008.1
20260508122525 76 44 0.0 4.0 0.00 0.00 0.00 89 1007.9
20260508122026 76 42 0.0 3.0 0.00 0.00 0.00 90 1007.8
20260508121525 76 41 0.0 4.0 0.00 0.00 0.00 93 1007.7
20260508121023 76 42 1.0 4.0 0.00 0.00 0.00 94 1007.6
20260508120522 76 46 0.0 4.0 0.00 0.00 0.00 94 1007.6
20260508120023 76 50 0.0 1.0 0.00 0.00 0.00 95 1007.7
20260508115520 76 50 0.0 2.0 0.00 0.00 0.00 95 1007.9
20260508115022 76 49 0.0 3.0 0.00 0.00 0.00 95 1007.8
20260508114519 75 50 0.0 3.0 0.00 0.00 0.00 95 1008.0
20260508114018 75 131 0.0 0.0 0.00 0.00 0.00 96 1007.9
20260508113523 75 131 0.0 0.0 0.00 0.00 0.00 97 1007.7
20260508113227 75 137 0.0 0.0 0.00 0.00 0.00 98 1007.7
20260508113114 75 137 0.0 0.0 0.00 0.00 0.00 97 1007.5
20260508111956 75 137 0.0 0.0 0.00 0.00 0.00 98 1007.7
20260508111455 75 137 0.0 0.0 0.00 0.00 0.00 98 1007.6
20260508110953 75 137 0.0 0.0 0.00 0.00 0.00 98 1007.5
20260508110448 75 137 0.0 0.0 0.00 0.00 0.00 98 1007.3
20260508105948 75 137 0.0 0.0 0.00 0.00 0.00 98 1007.3
20260508105447 75 137 0.0 0.0 0.00 0.00 0.00 98 1007.6
20260508104944 75 137 0.0 0.0 0.00 0.00 0.00 98 1007.8
20260508104714 75 137 0.0 0.0 0.00 0.00 0.00 98 1007.7
20260508103940 75 158 0.0 0.0 0.00 0.00 0.00 98 1007.7
20260508103441 75 157 0.0 0.0 0.00 0.00 0.00 98 1007.7
20260508102936 75 158 0.0 0.0 0.00 0.00 0.00 98 1007.7
20260508102435 75 158 0.0 0.0 0.00 0.00 0.00 98 1007.5
20260508101934 75 158 0.0 1.0 0.00 0.00 0.00 98 1007.4
20260508101427 75 158 1.0 5.0 0.00 0.00 0.00 98 1007.3
20260508100926 75 154 1.0 5.0 0.00 0.00 0.00 99 1007.5
20260508100422 75 187 0.0 3.0 0.00 0.00 0.00 99 1007.4
20260508100151 75 129 0.0 2.0 0.00 0.00 0.00 99 1007.2
20260508095401 75 126 0.0 2.0 0.00 0.00 0.00 99 1007.1
20260508094859 74 191 0.0 0.0 0.00 0.00 0.00 99 1006.9
20260508094357 74 191 0.0 0.0 0.00 0.00 0.00 99 1006.6
20260508094117 74 191 0.0 0.0 0.00 0.00 0.00 99 1006.6
20260508093354 74 191 0.0 0.0 0.00 0.00 0.00 99 1006.6
20260508092851 74 191 0.0 0.0 0.00 0.00 0.00 99 1006.5
20260508092349 74 191 0.0 0.0 0.00 0.00 0.00 99 1006.5
20260508092112 74 191 0.0 0.0 0.00 0.00 0.00 99 1006.4
20260508091346 74 191 0.0 0.0 0.00 0.00 0.00 99 1006.3
20260508091114 74 191 0.0 0.0 0.00 0.00 0.00 99 1006.2
20260508090340 74 191 0.0 0.0 0.00 0.00 0.00 99 1006.2
20260508085838 74 191 0.0 0.0 0.00 0.00 0.00 99 1006.3
20260508085335 74 191 0.0 2.0 0.00 0.00 0.00 99 1006.2
20260508084838 74 191 0.0 2.0 0.00 0.00 0.00 99 1006.1
20260508084321 74 191 0.0 1.0 0.00 0.00 0.00 99 1006.0
20260508083819 74 129 0.0 0.0 0.00 0.00 0.00 99 1005.9
20260508083314 75 129 0.0 0.0 0.00 0.00 0.00 99 1005.9
20260508083041 75 129 0.0 2.0 0.00 0.00 0.00 99 1005.8
20260508082533 75 129 0.0 3.0 0.00 0.00 0.00 99 1005.5
20260508081813 75 129 0.0 3.0 0.00 0.00 0.00 99 1005.2
20260508081312 75 323 0.0 3.0 0.00 0.00 0.00 99 1004.9
20260508080812 75 323 0.0 3.0 0.00 0.00 0.00 99 1004.7
20260508080309 75 312 0.0 3.0 0.00 0.00 0.00 99 1004.6
20260508075806 75 312 1.0 4.0 0.00 0.00 0.00 99 1004.6
20260508075309 75 312 0.0 4.0 0.00 0.00 0.00 100 1004.6
20260508075029 74 346 0.0 0.0 0.00 0.00 0.00 100 1004.7
20260508074525 74 346 0.0 0.0 0.00 0.00 0.00 100 1004.6
20260508073758 74 350 0.0 0.0 0.00 0.00 0.00 100 1004.4
20260508073302 73 141 0.0 0.0 0.00 0.00 0.00 100 1004.6
20260508072758 73 140 0.0 1.0 0.00 0.00 0.00 100 1004.8
20260508072252 73 162 0.0 2.0 0.00 0.00 0.00 100 1004.9
20260508071758 73 195 1.0 3.0 0.00 0.00 0.00 100 1005.1
20260508071230 73 206 1.0 3.0 0.00 0.00 0.00 100 1005.3
20260508070930 73 130 1.0 5.0 0.00 0.00 0.00 100 1005.4
20260508070613 73 85 0.0 2.0 0.00 0.00 0.00 100 1005.7
20260508065606 73 85 0.0 2.0 0.00 0.00 0.00 100 1005.7
20260508065039 74 85 0.0 1.0 0.00 0.00 0.00 100 1005.7
20260508064516 74 85 0.0 0.0 0.00 0.00 0.00 100 1005.8
20260508063949 74 85 0.0 0.0 0.00 0.00 0.00 100 1005.8
20260508063912 74 85 0.0 0.0 0.00 0.00 0.00 100 1005.9
20260508062856 74 85 0.0 0.0 0.00 0.00 0.00 100 1006.0
20260508062330 74 85 0.0 0.0 0.00 0.00 0.00 100 1006.1
20260508061758 74 85 0.0 0.0 0.00 0.00 0.00 100 1006.1
20260508061238 74 85 0.0 1.0 0.00 0.00 0.00 100 1006.2
20260508060742 74 85 0.0 1.0 0.00 0.00 0.00 100 1006.2
20260508060214 74 85 0.0 2.0 0.00 0.00 0.00 100 1006.3
20260508055647 74 85 0.0 2.0 0.00 0.00 0.00 100 1006.4
20260508055119 74 80 0.0 2.0 0.00 0.00 0.00 100 1006.6
20260508054606 74 191 0.0 1.0 0.00 0.00 0.00 100 1006.7
20260508054110 74 191 0.0 1.0 0.00 0.00 0.00 100 1006.7
20260508053543 74 191 0.0 1.0 0.00 0.00 0.00 100 1006.7
20260508053022 74 199 0.0 2.0 0.00 0.00 0.00 100 1006.7
20260508052452 75 199 0.0 2.0 0.00 0.00 0.00 100 1006.7
20260508051926 75 199 0.0 2.0 0.00 0.00 0.00 100 1006.7
20260508051401 75 199 0.0 2.0 0.00 0.00 0.00 100 1006.7
20260508050832 75 199 0.0 2.0 0.00 0.00 0.00 100 1006.8
20260508050307 75 214 0.0 2.0 0.00 0.00 0.00 100 1006.9
20260508045740 75 214 1.0 2.0 0.00 0.00 0.00 100 1006.9
20260508045223 75 209 1.0 2.0 0.00 0.00 0.00 100 1006.9
20260508044722 75 209 1.0 2.0 0.00 0.00 0.00 100 1006.9
20260508044222 75 209 1.0 2.0 0.00 0.00 0.00 100 1006.8
20260508043723 75 248 0.0 2.0 0.00 0.00 0.00 100 1006.8
20260508043223 75 102 0.0 0.0 0.00 0.00 0.00 100 1006.8
20260508042716 75 102 0.0 0.0 0.00 0.00 0.00 100 1006.8
20260508042214 75 102 0.0 0.0 0.00 0.00 0.00 100 1006.9
20260508041711 75 101 0.0 0.0 0.00 0.00 0.00 100 1006.9
20260508041207 75 101 0.0 0.0 0.00 0.00 0.00 100 1006.9
20260508040706 75 101 0.0 0.0 0.00 0.00 0.00 100 1006.9
20260508040205 75 101 0.0 0.0 0.00 0.00 0.00 100 1007.0
20260508035700 75 101 0.0 0.0 0.00 0.00 0.00 100 1007.1
20260508035157 75 101 0.0 0.0 0.00 0.00 0.00 100 1007.2
20260508034653 75 101 0.0 0.0 0.00 0.00 0.00 100 1007.2
20260508034156 74 101 0.0 0.0 0.00 0.00 0.00 100 1007.2
20260508033646 74 101 0.0 1.0 0.00 0.00 0.00 100 1007.3
20260508033142 74 101 0.0 2.0 0.00 0.00 0.00 100 1007.4
20260508032642 74 101 1.0 3.0 0.00 0.00 0.00 100 1007.6
20260508032139 74 101 1.0 3.0 0.00 0.00 0.00 100 1007.6
20260508031638 74 101 1.0 3.0 0.00 0.00 0.00 99 1007.6
20260508031139 74 101 1.0 3.0 0.00 0.00 0.00 99 1007.6
20260508030636 74 44 0.0 2.0 0.00 0.00 0.00 99 1007.6
20260508030135 74 44 0.0 1.0 0.00 0.00 0.00 99 1007.7
20260508025627 74 44 0.0 1.0 0.00 0.00 0.00 99 1007.8
20260508025130 74 44 0.0 1.0 0.00 0.00 0.00 99 1007.9
20260508024625 74 44 0.0 0.0 0.00 0.00 0.00 99 1007.9
20260508024126 74 44 0.0 0.0 0.00 0.00 0.00 98 1008.0
20260508023623 74 44 0.0 1.0 0.00 0.00 0.00 98 1008.0
20260508023116 74 44 0.0 1.0 0.00 0.00 0.00 98 1008.1
20260508022615 74 44 0.0 3.0 0.00 0.00 0.00 98 1008.0
20260508022118 75 44 0.0 3.0 0.00 0.00 0.00 98 1008.1
20260508021840 75 42 0.0 2.0 0.00 0.00 0.00 98 1008.1
20260508021044 75 132 0.0 2.0 0.00 0.00 0.00 98 1008.1
20260508020748 75 131 0.0 4.0 0.00 0.00 0.00 98 1008.2
20260508020030 75 131 1.0 4.0 0.00 0.00 0.00 97 1008.1
20260508015501 75 121 1.0 3.0 0.00 0.00 0.00 97 1008.2
20260508014940 75 140 0.0 3.0 0.00 0.00 0.00 97 1008.1
20260508014440 75 140 0.0 1.0 0.00 0.00 0.00 97 1008.1
20260508014158 75 140 0.0 3.0 0.00 0.00 0.00 97 1008.0
20260508013428 75 140 1.0 3.0 0.00 0.00 0.00 97 1007.9
20260508012926 76 39 0.0 2.0 0.00 0.00 0.00 96 1007.9
20260508012424 76 15 0.0 2.0 0.00 0.00 0.00 96 1007.9
20260508011926 76 15 0.0 2.0 0.00 0.00 0.00 96 1007.9
20260508011424 76 15 0.0 0.0 0.00 0.00 0.00 96 1007.9
20260508010922 76 15 0.0 0.0 0.00 0.00 0.00 96 1007.9
20260508010418 76 15 0.0 0.0 0.00 0.00 0.00 96 1007.9
20260508010142 76 15 0.0 2.0 0.00 0.00 0.00 96 1008.0
20260508005420 76 15 1.0 4.0 0.00 0.00 0.00 96 1008.1
20260508004918 76 21 1.0 4.0 0.00 0.00 0.00 96 1008.2
20260508004415 76 350 0.0 2.0 0.00 0.00 0.00 96 1008.2
20260508003917 76 350 0.0 1.0 0.00 0.00 0.00 96 1008.3
20260508003615 76 350 0.0 3.0 0.00 0.00 0.00 96 1008.2
20260508002857 76 350 0.0 3.0 0.00 0.00 0.00 96 1008.3
20260508002341 76 334 0.0 3.0 0.00 0.00 0.00 96 1008.3
20260508001842 76 334 1.0 3.0 0.00 0.00 0.00 96 1008.3
20260508001339 76 334 1.0 3.0 0.00 0.00 0.00 96 1008.3
20260508000858 76 333 1.0 4.0 0.00 0.00 0.00 96 1008.3
20260508000345 77 333 1.0 4.0 0.00 0.00 0.00 96 1008.4
20260507235834 76 333 1.0 6.0 0.00 0.00 0.00 96 1008.3
20260507235605 76 331 1.0 6.0 0.00 0.00 0.00 96 1008.4
20260507234836 77 338 1.0 4.0 0.00 0.00 0.00 96 1008.4
20260507234333 77 338 1.0 4.0 0.00 0.00 0.00 96 1008.4
20260507233856 77 341 1.0 3.0 0.00 0.00 0.00 96 1008.3
20260507233330 77 339 0.0 3.0 0.00 0.00 0.00 96 1008.3
20260507232831 77 339 0.0 2.0 0.00 0.00 0.00 96 1008.3
20260507232537 77 339 0.0 3.0 0.00 0.00 0.00 96 1008.2
20260507231813 77 339 1.0 3.0 0.00 0.00 0.00 96 1008.3
20260507231550 77 8 0.0 2.0 0.00 0.00 0.00 96 1008.3
20260507230810 77 8 0.0 5.0 0.00 0.00 0.00 96 1008.2
20260507230309 76 8 1.0 5.0 0.00 0.00 0.00 96 1008.2
20260507225808 76 8 1.0 5.0 0.00 0.00 0.00 96 1008.2
20260507225312 76 9 1.0 5.0 0.00 0.00 0.00 96 1008.3
20260507224806 76 345 2.0 4.0 0.00 0.00 0.00 96 1008.4
20260507224259 76 0 1.0 4.0 0.00 0.00 0.00 96 1008.4
20260507223759 76 12 0.0 3.0 0.00 0.00 0.00 96 1008.4
20260507223255 76 0 0.0 2.0 0.00 0.00 0.00 96 1008.3
20260507222757 76 0 1.0 3.0 0.00 0.00 0.00 95 1008.4
20260507222256 76 0 1.0 3.0 0.00 0.00 0.00 95 1008.4
20260507221800 76 326 1.0 3.0 0.00 0.00 0.00 95 1008.3
20260507221258 76 8 1.0 5.0 0.00 0.00 0.00 96 1008.2
20260507220752 76 8 2.0 5.0 0.00 0.00 0.00 96 1008.2
20260507220249 76 355 2.0 5.0 0.00 0.00 0.00 96 1008.0
20260507215750 76 12 1.0 5.0 0.00 0.00 0.00 96 1008.0
20260507215228 76 350 1.0 3.0 0.00 0.00 0.00 96 1008.0
20260507214726 76 0 2.0 6.0 0.00 0.00 0.00 96 1008.0
20260507214222 76 5 2.0 6.0 0.00 0.00 0.00 96 1007.9
20260507213721 76 0 1.0 5.0 0.00 0.00 0.00 96 1007.8
20260507213221 76 0 1.0 3.0 0.00 0.00 0.00 96 1007.7
20260507212748 76 0 1.0 3.0 0.00 0.00 0.00 95 1007.7
20260507212216 76 331 0.0 2.0 0.00 0.00 0.00 96 1007.7
20260507211932 76 331 0.0 3.0 0.00 0.00 0.00 96 1007.6
20260507211210 76 331 1.0 3.0 0.00 0.00 0.00 95 1007.5
20260507210712 76 331 1.0 6.0 0.00 0.00 0.00 95 1007.6
20260507210209 76 137 1.0 6.0 0.00 0.00 0.00 95 1007.5
20260507205707 76 0 1.0 4.0 0.00 0.00 0.00 96 1007.6
20260507205208 76 7 1.0 4.0 0.00 0.00 0.00 96 1007.4
20260507204659 76 350 1.0 4.0 0.00 0.00 0.00 96 1007.5
20260507204158 76 0 1.0 5.0 0.00 0.00 0.00 96 1007.5
20260507203701 76 350 2.0 6.0 0.00 0.00 0.00 96 1007.4
20260507203202 76 338 2.0 6.0 0.00 0.00 0.00 95 1007.3
20260507202634 76 355 1.0 5.0 0.00 0.00 0.00 95 1007.3
20260507202328 76 330 2.0 5.0 0.00 0.00 0.00 95 1007.3
20260507201536 76 323 2.0 5.0 0.00 0.00 0.00 95 1007.3
20260507201008 76 345 1.0 5.0 0.00 0.00 0.00 95 1007.4
20260507200442 76 339 0.0 5.0 0.00 0.00 0.00 94 1007.4
20260507195914 76 350 1.0 4.0 0.00 0.00 0.00 94 1007.4
20260507195347 76 350 1.0 4.0 0.00 0.00 0.00 94 1007.3
20260507195059 77 304 2.0 6.0 0.00 0.00 0.00 94 1007.3
20260507194558 77 355 3.0 10.0 0.00 0.00 0.00 94 1007.3
20260507193805 77 316 3.0 9.0 0.00 0.00 0.00 93 1007.4
20260507193243 77 355 3.0 8.0 0.00 0.00 0.00 93 1007.5
20260507192730 77 326 2.0 6.0 0.00 0.00 0.00 93 1007.5
20260507192451 77 350 2.0 6.0 0.00 0.00 0.00 93 1007.6
20260507191703 77 350 2.0 6.0 0.00 0.00 0.00 93 1007.7
20260507191142 77 13 3.0 6.0 0.00 0.00 0.00 93 1007.6